sensor_id;sensor_type;location;lat;lon;timestamp;P1;durP1;ratioP1;P2;durP2;ratioP2
25341;SDS011;13298;48.792;9.154;2023-02-28T00:00:33;3.40;;;1.80;;
25341;SDS011;13298;48.792;9.154;2023-02-28T00:03:00;3.38;;;1.50;;
25341;SDS011;13298;48.792;9.154;2023-02-28T00:05:26;2.85;;;1.73;;
25341;SDS011;13298;48.792;9.154;2023-02-28T00:07:54;2.90;;;1.60;;
25341;SDS011;13298;48.792;9.154;2023-02-28T00:10:28;2.42;;;1.80;;
25341;SDS011;13298;48.792;9.154;2023-02-28T00:12:56;3.80;;;1.90;;
25341;SDS011;13298;48.792;9.154;2023-02-28T00:15:27;2.38;;;1.67;;
25341;SDS011;13298;48.792;9.154;2023-02-28T00:17:53;3.88;;;1.80;;
25341;SDS011;13298;48.792;9.154;2023-02-28T00:20:19;3.70;;;1.67;;
25341;SDS011;13298;48.792;9.154;2023-02-28T00:22:46;3.42;;;1.60;;
25341;SDS011;13298;48.792;9.154;2023-02-28T00:25:16;3.17;;;1.70;;
25341;SDS011;13298;48.792;9.154;2023-02-28T00:27:45;4.70;;;1.92;;
25341;SDS011;13298;48.792;9.154;2023-02-28T00:30:13;3.85;;;1.58;;
25341;SDS011;13298;48.792;9.154;2023-02-28T00:32:42;2.67;;;1.83;;
25341;SDS011;13298;48.792;9.154;2023-02-28T00:35:09;5.60;;;2.17;;
25341;SDS011;13298;48.792;9.154;2023-02-28T00:37:35;3.40;;;1.70;;
25341;SDS011;13298;48.792;9.154;2023-02-28T00:40:01;4.15;;;1.63;;
25341;SDS011;13298;48.792;9.154;2023-02-28T00:42:31;3.60;;;2.05;;
25341;SDS011;13298;48.792;9.154;2023-02-28T00:44:58;6.20;;;2.08;;
25341;SDS011;13298;48.792;9.154;2023-02-28T00:47:24;2.72;;;1.75;;
25341;SDS011;13298;48.792;9.154;2023-02-28T00:49:50;3.05;;;1.70;;
25341;SDS011;13298;48.792;9.154;2023-02-28T00:52:16;3.60;;;1.80;;
25341;SDS011;13298;48.792;9.154;2023-02-28T00:54:42;2.78;;;1.60;;
25341;SDS011;13298;48.792;9.154;2023-02-28T00:57:07;2.67;;;1.90;;
25341;SDS011;13298;48.792;9.154;2023-02-28T00:59:33;3.85;;;1.98;;
25341;SDS011;13298;48.792;9.154;2023-02-28T01:01:58;3.55;;;1.75;;
25341;SDS011;13298;48.792;9.154;2023-02-28T01:04:24;4.35;;;1.70;;
25341;SDS011;13298;48.792;9.154;2023-02-28T01:06:50;4.70;;;2.00;;
25341;SDS011;13298;48.792;9.154;2023-02-28T01:09:15;3.75;;;1.88;;
25341;SDS011;13298;48.792;9.154;2023-02-28T01:11:42;7.47;;;2.05;;
25341;SDS011;13298;48.792;9.154;2023-02-28T01:14:09;4.55;;;1.95;;
25341;SDS011;13298;48.792;9.154;2023-02-28T01:16:39;3.97;;;2.20;;
25341;SDS011;13298;48.792;9.154;2023-02-28T01:19:05;3.10;;;1.98;;
25341;SDS011;13298;48.792;9.154;2023-02-28T01:21:31;3.38;;;2.22;;
25341;SDS011;13298;48.792;9.154;2023-02-28T01:23:57;4.43;;;2.40;;
25341;SDS011;13298;48.792;9.154;2023-02-28T01:26:23;4.03;;;2.30;;
25341;SDS011;13298;48.792;9.154;2023-02-28T01:28:50;2.75;;;1.85;;
25341;SDS011;13298;48.792;9.154;2023-02-28T01:31:17;3.53;;;2.50;;
25341;SDS011;13298;48.792;9.154;2023-02-28T01:33:44;4.50;;;2.28;;
25341;SDS011;13298;48.792;9.154;2023-02-28T01:38:39;5.45;;;2.10;;
25341;SDS011;13298;48.792;9.154;2023-02-28T01:41:05;5.90;;;2.33;;
25341;SDS011;13298;48.792;9.154;2023-02-28T01:46:07;4.70;;;2.42;;
25341;SDS011;13298;48.792;9.154;2023-02-28T01:48:34;4.70;;;2.42;;
25341;SDS011;13298;48.792;9.154;2023-02-28T01:51:08;3.33;;;2.45;;
25341;SDS011;13298;48.792;9.154;2023-02-28T01:56:57;6.47;;;2.25;;
25341;SDS011;13298;48.792;9.154;2023-02-28T01:59:31;6.68;;;2.50;;
25341;SDS011;13298;48.792;9.154;2023-02-28T02:02:05;5.15;;;2.45;;
25341;SDS011;13298;48.792;9.154;2023-02-28T02:04:37;6.93;;;2.65;;
25341;SDS011;13298;48.792;9.154;2023-02-28T02:07:09;5.03;;;2.60;;
25341;SDS011;13298;48.792;9.154;2023-02-28T02:09:36;5.35;;;2.47;;
25341;SDS011;13298;48.792;9.154;2023-02-28T02:12:05;6.13;;;2.20;;
25341;SDS011;13298;48.792;9.154;2023-02-28T02:14:58;3.92;;;2.38;;
25341;SDS011;13298;48.792;9.154;2023-02-28T02:17:36;4.90;;;2.58;;
25341;SDS011;13298;48.792;9.154;2023-02-28T02:20:14;4.75;;;2.45;;
25341;SDS011;13298;48.792;9.154;2023-02-28T02:28:18;5.50;;;2.78;;
25341;SDS011;13298;48.792;9.154;2023-02-28T02:31:24;4.22;;;2.63;;
25341;SDS011;13298;48.792;9.154;2023-02-28T02:42:41;4.40;;;2.70;;
25341;SDS011;13298;48.792;9.154;2023-02-28T02:45:18;4.43;;;2.92;;
25341;SDS011;13298;48.792;9.154;2023-02-28T02:47:53;4.88;;;3.00;;
25341;SDS011;13298;48.792;9.154;2023-02-28T02:50:23;6.45;;;3.17;;
25341;SDS011;13298;48.792;9.154;2023-02-28T02:52:56;5.40;;;3.08;;
25341;SDS011;13298;48.792;9.154;2023-02-28T02:55:26;4.03;;;2.80;;
25341;SDS011;13298;48.792;9.154;2023-02-28T03:00:24;4.63;;;3.05;;
25341;SDS011;13298;48.792;9.154;2023-02-28T03:02:56;4.72;;;2.60;;
25341;SDS011;13298;48.792;9.154;2023-02-28T03:05:26;9.52;;;2.88;;
25341;SDS011;13298;48.792;9.154;2023-02-28T03:07:59;6.50;;;3.08;;
25341;SDS011;13298;48.792;9.154;2023-02-28T03:10:39;5.68;;;3.13;;
25341;SDS011;13298;48.792;9.154;2023-02-28T03:19:13;5.38;;;2.85;;
25341;SDS011;13298;48.792;9.154;2023-02-28T03:22:40;5.78;;;2.97;;
25341;SDS011;13298;48.792;9.154;2023-02-28T03:28:00;4.80;;;2.78;;
25341;SDS011;13298;48.792;9.154;2023-02-28T03:30:47;4.90;;;3.08;;
25341;SDS011;13298;48.792;9.154;2023-02-28T03:33:20;6.32;;;3.40;;
25341;SDS011;13298;48.792;9.154;2023-02-28T03:35:55;4.85;;;3.15;;
25341;SDS011;13298;48.792;9.154;2023-02-28T03:38:33;7.18;;;3.30;;
25341;SDS011;13298;48.792;9.154;2023-02-28T03:41:13;6.53;;;3.30;;
25341;SDS011;13298;48.792;9.154;2023-02-28T03:43:58;6.22;;;3.35;;
25341;SDS011;13298;48.792;9.154;2023-02-28T03:46:31;4.90;;;3.03;;
25341;SDS011;13298;48.792;9.154;2023-02-28T03:51:33;5.55;;;3.33;;
25341;SDS011;13298;48.792;9.154;2023-02-28T03:54:04;5.03;;;3.17;;
25341;SDS011;13298;48.792;9.154;2023-02-28T03:56:43;8.13;;;3.95;;
25341;SDS011;13298;48.792;9.154;2023-02-28T03:59:34;7.32;;;3.60;;
25341;SDS011;13298;48.792;9.154;2023-02-28T04:02:05;5.78;;;3.30;;
25341;SDS011;13298;48.792;9.154;2023-02-28T04:04:31;6.85;;;3.67;;
25341;SDS011;13298;48.792;9.154;2023-02-28T04:07:04;8.32;;;3.95;;
25341;SDS011;13298;48.792;9.154;2023-02-28T04:09:33;6.85;;;3.60;;
25341;SDS011;13298;48.792;9.154;2023-02-28T04:11:59;5.07;;;3.45;;
25341;SDS011;13298;48.792;9.154;2023-02-28T04:14:25;7.38;;;3.58;;
25341;SDS011;13298;48.792;9.154;2023-02-28T04:16:51;6.15;;;3.67;;
25341;SDS011;13298;48.792;9.154;2023-02-28T04:19:17;8.10;;;3.50;;
25341;SDS011;13298;48.792;9.154;2023-02-28T04:21:45;8.57;;;3.58;;
25341;SDS011;13298;48.792;9.154;2023-02-28T04:24:17;7.50;;;4.10;;
25341;SDS011;13298;48.792;9.154;2023-02-28T04:26:50;6.55;;;3.72;;
25341;SDS011;13298;48.792;9.154;2023-02-28T04:29:20;6.93;;;3.67;;
25341;SDS011;13298;48.792;9.154;2023-02-28T04:31:47;8.55;;;3.67;;
25341;SDS011;13298;48.792;9.154;2023-02-28T04:34:13;5.97;;;3.70;;
25341;SDS011;13298;48.792;9.154;2023-02-28T04:36:39;9.57;;;3.60;;
25341;SDS011;13298;48.792;9.154;2023-02-28T04:39:05;4.38;;;3.33;;
25341;SDS011;13298;48.792;9.154;2023-02-28T04:41:31;5.90;;;3.42;;
25341;SDS011;13298;48.792;9.154;2023-02-28T04:43:57;6.35;;;3.90;;
25341;SDS011;13298;48.792;9.154;2023-02-28T04:46:23;6.70;;;3.70;;
25341;SDS011;13298;48.792;9.154;2023-02-28T04:48:49;5.47;;;3.42;;
25341;SDS011;13298;48.792;9.154;2023-02-28T04:51:15;7.07;;;3.60;;
25341;SDS011;13298;48.792;9.154;2023-02-28T04:53:43;8.43;;;4.28;;
25341;SDS011;13298;48.792;9.154;2023-02-28T04:56:10;5.72;;;3.55;;
25341;SDS011;13298;48.792;9.154;2023-02-28T04:58:39;5.60;;;3.80;;
25341;SDS011;13298;48.792;9.154;2023-02-28T05:01:06;7.28;;;3.88;;
25341;SDS011;13298;48.792;9.154;2023-02-28T05:03:58;6.28;;;4.00;;
25341;SDS011;13298;48.792;9.154;2023-02-28T05:06:26;6.22;;;3.78;;
25341;SDS011;13298;48.792;9.154;2023-02-28T05:08:55;6.30;;;3.70;;
25341;SDS011;13298;48.792;9.154;2023-02-28T05:13:50;10.07;;;3.78;;
25341;SDS011;13298;48.792;9.154;2023-02-28T05:16:17;8.20;;;4.13;;
25341;SDS011;13298;48.792;9.154;2023-02-28T05:18:44;8.50;;;4.15;;
25341;SDS011;13298;48.792;9.154;2023-02-28T05:21:22;7.40;;;4.00;;
25341;SDS011;13298;48.792;9.154;2023-02-28T05:23:50;6.32;;;4.22;;
25341;SDS011;13298;48.792;9.154;2023-02-28T05:26:16;7.03;;;4.35;;
25341;SDS011;13298;48.792;9.154;2023-02-28T05:28:42;8.40;;;4.10;;
25341;SDS011;13298;48.792;9.154;2023-02-28T05:31:10;6.50;;;4.18;;
25341;SDS011;13298;48.792;9.154;2023-02-28T05:33:36;6.75;;;4.05;;
25341;SDS011;13298;48.792;9.154;2023-02-28T05:36:02;10.63;;;4.38;;
25341;SDS011;13298;48.792;9.154;2023-02-28T05:38:29;6.50;;;4.18;;
25341;SDS011;13298;48.792;9.154;2023-02-28T05:40:54;6.15;;;4.10;;
25341;SDS011;13298;48.792;9.154;2023-02-28T05:43:21;7.05;;;4.32;;
25341;SDS011;13298;48.792;9.154;2023-02-28T05:45:47;8.43;;;4.30;;
25341;SDS011;13298;48.792;9.154;2023-02-28T05:48:13;6.93;;;4.63;;
25341;SDS011;13298;48.792;9.154;2023-02-28T05:50:38;8.38;;;4.65;;
25341;SDS011;13298;48.792;9.154;2023-02-28T05:53:04;8.80;;;4.60;;
25341;SDS011;13298;48.792;9.154;2023-02-28T05:55:30;12.40;;;5.13;;
25341;SDS011;13298;48.792;9.154;2023-02-28T05:57:56;7.07;;;4.07;;
25341;SDS011;13298;48.792;9.154;2023-02-28T06:00:22;7.75;;;4.43;;
25341;SDS011;13298;48.792;9.154;2023-02-28T06:02:48;7.88;;;4.60;;
25341;SDS011;13298;48.792;9.154;2023-02-28T06:05:15;7.13;;;4.15;;
25341;SDS011;13298;48.792;9.154;2023-02-28T06:07:42;6.88;;;4.55;;
25341;SDS011;13298;48.792;9.154;2023-02-28T06:13:04;11.43;;;5.35;;
25341;SDS011;13298;48.792;9.154;2023-02-28T06:15:30;8.38;;;4.90;;
25341;SDS011;13298;48.792;9.154;2023-02-28T06:17:56;5.40;;;4.22;;
25341;SDS011;13298;48.792;9.154;2023-02-28T06:20:23;6.95;;;4.53;;
25341;SDS011;13298;48.792;9.154;2023-02-28T06:22:51;6.47;;;4.05;;
25341;SDS011;13298;48.792;9.154;2023-02-28T06:25:19;6.38;;;4.35;;
25341;SDS011;13298;48.792;9.154;2023-02-28T06:27:45;9.57;;;4.70;;
25341;SDS011;13298;48.792;9.154;2023-02-28T06:30:10;8.73;;;4.93;;
25341;SDS011;13298;48.792;9.154;2023-02-28T06:32:37;7.35;;;4.32;;
25341;SDS011;13298;48.792;9.154;2023-02-28T06:35:03;7.88;;;4.65;;
25341;SDS011;13298;48.792;9.154;2023-02-28T06:37:30;7.30;;;4.43;;
25341;SDS011;13298;48.792;9.154;2023-02-28T06:39:57;8.88;;;4.57;;
25341;SDS011;13298;48.792;9.154;2023-02-28T06:42:23;8.13;;;4.70;;
25341;SDS011;13298;48.792;9.154;2023-02-28T06:44:53;7.53;;;4.57;;
25341;SDS011;13298;48.792;9.154;2023-02-28T06:47:20;7.90;;;4.80;;
25341;SDS011;13298;48.792;9.154;2023-02-28T06:49:46;8.52;;;4.95;;
25341;SDS011;13298;48.792;9.154;2023-02-28T06:52:11;10.10;;;5.13;;
25341;SDS011;13298;48.792;9.154;2023-02-28T06:54:37;8.43;;;4.63;;
25341;SDS011;13298;48.792;9.154;2023-02-28T06:57:03;9.95;;;5.00;;
25341;SDS011;13298;48.792;9.154;2023-02-28T06:59:29;7.53;;;4.63;;
25341;SDS011;13298;48.792;9.154;2023-02-28T07:01:55;7.65;;;4.53;;
25341;SDS011;13298;48.792;9.154;2023-02-28T07:04:21;9.88;;;5.00;;
25341;SDS011;13298;48.792;9.154;2023-02-28T07:06:47;9.75;;;4.85;;
25341;SDS011;13298;48.792;9.154;2023-02-28T07:09:13;11.93;;;5.50;;
25341;SDS011;13298;48.792;9.154;2023-02-28T07:11:39;9.52;;;5.20;;
25341;SDS011;13298;48.792;9.154;2023-02-28T07:14:05;8.77;;;5.05;;
25341;SDS011;13298;48.792;9.154;2023-02-28T07:16:32;10.50;;;4.97;;
25341;SDS011;13298;48.792;9.154;2023-02-28T07:18:58;11.50;;;5.22;;
25341;SDS011;13298;48.792;9.154;2023-02-28T07:21:24;9.25;;;5.32;;
25341;SDS011;13298;48.792;9.154;2023-02-28T07:23:50;8.50;;;5.30;;
25341;SDS011;13298;48.792;9.154;2023-02-28T07:26:16;11.30;;;5.10;;
25341;SDS011;13298;48.792;9.154;2023-02-28T07:28:44;7.90;;;4.78;;
25341;SDS011;13298;48.792;9.154;2023-02-28T07:31:12;10.80;;;5.10;;
25341;SDS011;13298;48.792;9.154;2023-02-28T07:33:39;9.02;;;4.70;;
25341;SDS011;13298;48.792;9.154;2023-02-28T07:36:07;12.35;;;5.07;;
25341;SDS011;13298;48.792;9.154;2023-02-28T07:38:42;11.02;;;4.90;;
25341;SDS011;13298;48.792;9.154;2023-02-28T07:41:11;7.68;;;4.75;;
25341;SDS011;13298;48.792;9.154;2023-02-28T07:43:36;10.50;;;5.82;;
25341;SDS011;13298;48.792;9.154;2023-02-28T07:46:09;9.88;;;5.53;;
25341;SDS011;13298;48.792;9.154;2023-02-28T07:48:37;9.55;;;5.20;;
25341;SDS011;13298;48.792;9.154;2023-02-28T07:51:03;10.07;;;5.18;;
25341;SDS011;13298;48.792;9.154;2023-02-28T07:53:29;9.77;;;4.82;;
25341;SDS011;13298;48.792;9.154;2023-02-28T07:55:56;11.27;;;5.28;;
25341;SDS011;13298;48.792;9.154;2023-02-28T07:58:23;11.45;;;5.55;;
25341;SDS011;13298;48.792;9.154;2023-02-28T08:00:50;8.35;;;5.35;;
25341;SDS011;13298;48.792;9.154;2023-02-28T08:03:17;9.02;;;5.68;;
25341;SDS011;13298;48.792;9.154;2023-02-28T08:05:44;10.00;;;5.55;;
25341;SDS011;13298;48.792;9.154;2023-02-28T08:08:09;8.68;;;5.38;;
25341;SDS011;13298;48.792;9.154;2023-02-28T08:10:35;8.07;;;5.15;;
25341;SDS011;13298;48.792;9.154;2023-02-28T08:13:01;10.18;;;5.47;;
25341;SDS011;13298;48.792;9.154;2023-02-28T08:15:27;9.20;;;5.78;;
25341;SDS011;13298;48.792;9.154;2023-02-28T08:17:53;12.98;;;5.40;;
25341;SDS011;13298;48.792;9.154;2023-02-28T08:20:21;9.63;;;5.47;;
25341;SDS011;13298;48.792;9.154;2023-02-28T08:22:48;9.30;;;5.43;;
25341;SDS011;13298;48.792;9.154;2023-02-28T08:25:13;10.93;;;5.95;;
25341;SDS011;13298;48.792;9.154;2023-02-28T08:27:40;9.93;;;5.90;;
25341;SDS011;13298;48.792;9.154;2023-02-28T08:30:06;10.45;;;5.82;;
25341;SDS011;13298;48.792;9.154;2023-02-28T08:32:33;10.77;;;5.80;;
25341;SDS011;13298;48.792;9.154;2023-02-28T08:34:59;16.88;;;6.22;;
25341;SDS011;13298;48.792;9.154;2023-02-28T08:37:25;11.05;;;5.85;;
25341;SDS011;13298;48.792;9.154;2023-02-28T08:39:50;9.82;;;6.10;;
25341;SDS011;13298;48.792;9.154;2023-02-28T08:42:16;9.43;;;5.60;;
25341;SDS011;13298;48.792;9.154;2023-02-28T08:44:42;9.13;;;5.70;;
25341;SDS011;13298;48.792;9.154;2023-02-28T08:47:08;12.23;;;6.38;;
25341;SDS011;13298;48.792;9.154;2023-02-28T08:49:33;10.20;;;5.68;;
25341;SDS011;13298;48.792;9.154;2023-02-28T08:51:59;8.57;;;5.95;;
25341;SDS011;13298;48.792;9.154;2023-02-28T08:54:25;10.05;;;6.68;;
25341;SDS011;13298;48.792;9.154;2023-02-28T08:56:51;10.88;;;6.03;;
25341;SDS011;13298;48.792;9.154;2023-02-28T08:59:17;13.35;;;6.78;;
25341;SDS011;13298;48.792;9.154;2023-02-28T09:01:43;11.73;;;6.38;;
25341;SDS011;13298;48.792;9.154;2023-02-28T09:04:09;10.27;;;6.32;;
25341;SDS011;13298;48.792;9.154;2023-02-28T09:06:36;10.00;;;6.05;;
25341;SDS011;13298;48.792;9.154;2023-02-28T09:09:03;10.32;;;6.00;;
25341;SDS011;13298;48.792;9.154;2023-02-28T09:11:31;10.52;;;6.60;;
25341;SDS011;13298;48.792;9.154;2023-02-28T09:13:57;12.05;;;6.28;;
25341;SDS011;13298;48.792;9.154;2023-02-28T09:16:25;12.32;;;6.65;;
25341;SDS011;13298;48.792;9.154;2023-02-28T09:18:51;10.38;;;6.78;;
25341;SDS011;13298;48.792;9.154;2023-02-28T09:21:17;11.00;;;5.88;;
25341;SDS011;13298;48.792;9.154;2023-02-28T09:23:44;10.80;;;6.22;;
25341;SDS011;13298;48.792;9.154;2023-02-28T09:26:19;11.60;;;6.63;;
25341;SDS011;13298;48.792;9.154;2023-02-28T09:28:47;10.50;;;6.95;;
25341;SDS011;13298;48.792;9.154;2023-02-28T09:31:14;10.10;;;6.18;;
25341;SDS011;13298;48.792;9.154;2023-02-28T09:33:45;10.48;;;6.57;;
25341;SDS011;13298;48.792;9.154;2023-02-28T09:36:13;11.18;;;6.40;;
25341;SDS011;13298;48.792;9.154;2023-02-28T09:38:39;11.07;;;5.88;;
25341;SDS011;13298;48.792;9.154;2023-02-28T09:41:16;9.43;;;6.22;;
25341;SDS011;13298;48.792;9.154;2023-02-28T09:43:53;10.57;;;6.40;;
25341;SDS011;13298;48.792;9.154;2023-02-28T09:46:27;11.23;;;6.20;;
25341;SDS011;13298;48.792;9.154;2023-02-28T09:49:00;8.85;;;6.68;;
25341;SDS011;13298;48.792;9.154;2023-02-28T09:51:44;10.90;;;6.35;;
25341;SDS011;13298;48.792;9.154;2023-02-28T09:54:21;10.88;;;6.72;;
25341;SDS011;13298;48.792;9.154;2023-02-28T09:56:50;13.13;;;6.85;;
25341;SDS011;13298;48.792;9.154;2023-02-28T09:59:57;15.27;;;7.57;;
25341;SDS011;13298;48.792;9.154;2023-02-28T10:05:38;9.57;;;6.20;;
25341;SDS011;13298;48.792;9.154;2023-02-28T10:08:16;10.15;;;5.93;;
25341;SDS011;13298;48.792;9.154;2023-02-28T10:10:57;10.15;;;6.45;;
25341;SDS011;13298;48.792;9.154;2023-02-28T10:13:27;12.18;;;6.63;;
25341;SDS011;13298;48.792;9.154;2023-02-28T10:16:08;11.73;;;6.47;;
25341;SDS011;13298;48.792;9.154;2023-02-28T10:18:45;9.73;;;6.35;;
25341;SDS011;13298;48.792;9.154;2023-02-28T10:21:18;11.18;;;6.90;;
25341;SDS011;13298;48.792;9.154;2023-02-28T10:23:56;12.20;;;7.00;;
25341;SDS011;13298;48.792;9.154;2023-02-28T10:26:52;10.88;;;6.43;;
25341;SDS011;13298;48.792;9.154;2023-02-28T10:29:25;10.52;;;6.65;;
25341;SDS011;13298;48.792;9.154;2023-02-28T10:31:54;11.25;;;6.57;;
25341;SDS011;13298;48.792;9.154;2023-02-28T10:34:20;12.25;;;7.20;;
25341;SDS011;13298;48.792;9.154;2023-02-28T10:36:46;11.85;;;7.60;;
25341;SDS011;13298;48.792;9.154;2023-02-28T10:42:05;11.57;;;6.90;;
25341;SDS011;13298;48.792;9.154;2023-02-28T10:47:38;12.75;;;7.38;;
25341;SDS011;13298;48.792;9.154;2023-02-28T10:56:00;11.43;;;7.15;;
25341;SDS011;13298;48.792;9.154;2023-02-28T11:01:51;9.73;;;6.35;;
25341;SDS011;13298;48.792;9.154;2023-02-28T11:04:19;9.77;;;6.65;;
25341;SDS011;13298;48.792;9.154;2023-02-28T11:06:56;11.13;;;7.00;;
25341;SDS011;13298;48.792;9.154;2023-02-28T11:09:34;10.32;;;6.53;;
25341;SDS011;13298;48.792;9.154;2023-02-28T11:12:10;10.38;;;6.50;;
25341;SDS011;13298;48.792;9.154;2023-02-28T11:14:47;12.02;;;7.35;;
25341;SDS011;13298;48.792;9.154;2023-02-28T11:17:20;11.35;;;6.85;;
25341;SDS011;13298;48.792;9.154;2023-02-28T11:19:50;10.70;;;6.75;;
25341;SDS011;13298;48.792;9.154;2023-02-28T11:22:20;12.30;;;6.78;;
25341;SDS011;13298;48.792;9.154;2023-02-28T11:24:51;12.02;;;6.88;;
25341;SDS011;13298;48.792;9.154;2023-02-28T11:27:40;11.10;;;7.22;;
25341;SDS011;13298;48.792;9.154;2023-02-28T11:30:24;12.82;;;6.93;;
25341;SDS011;13298;48.792;9.154;2023-02-28T11:32:58;13.07;;;7.60;;
25341;SDS011;13298;48.792;9.154;2023-02-28T11:37:59;9.63;;;6.90;;
25341;SDS011;13298;48.792;9.154;2023-02-28T11:48:27;14.75;;;7.60;;
25341;SDS011;13298;48.792;9.154;2023-02-28T11:51:33;12.85;;;7.78;;
25341;SDS011;13298;48.792;9.154;2023-02-28T11:54:07;13.00;;;7.10;;
25341;SDS011;13298;48.792;9.154;2023-02-28T11:56:57;11.75;;;7.32;;
25341;SDS011;13298;48.792;9.154;2023-02-28T12:00:10;13.30;;;7.35;;
25341;SDS011;13298;48.792;9.154;2023-02-28T12:05:44;12.90;;;7.05;;
25341;SDS011;13298;48.792;9.154;2023-02-28T12:11:41;11.38;;;6.65;;
25341;SDS011;13298;48.792;9.154;2023-02-28T12:14:28;10.15;;;7.07;;
25341;SDS011;13298;48.792;9.154;2023-02-28T12:26:42;11.52;;;7.18;;
25341;SDS011;13298;48.792;9.154;2023-02-28T12:29:19;10.93;;;7.03;;
25341;SDS011;13298;48.792;9.154;2023-02-28T12:31:58;11.63;;;7.15;;
25341;SDS011;13298;48.792;9.154;2023-02-28T12:34:57;10.77;;;7.25;;
25341;SDS011;13298;48.792;9.154;2023-02-28T12:40:13;11.15;;;6.78;;
25341;SDS011;13298;48.792;9.154;2023-02-28T12:43:02;10.23;;;6.88;;
25341;SDS011;13298;48.792;9.154;2023-02-28T12:48:11;10.73;;;6.70;;
25341;SDS011;13298;48.792;9.154;2023-02-28T12:51:03;11.40;;;6.78;;
25341;SDS011;13298;48.792;9.154;2023-02-28T12:53:35;11.18;;;7.30;;
25341;SDS011;13298;48.792;9.154;2023-02-28T12:59:00;11.38;;;6.75;;
25341;SDS011;13298;48.792;9.154;2023-02-28T13:17:09;11.30;;;7.68;;
25341;SDS011;13298;48.792;9.154;2023-02-28T13:19:43;12.05;;;7.22;;
25341;SDS011;13298;48.792;9.154;2023-02-28T13:22:18;11.13;;;7.50;;
25341;SDS011;13298;48.792;9.154;2023-02-28T13:24:48;11.93;;;7.07;;
25341;SDS011;13298;48.792;9.154;2023-02-28T13:29:57;10.82;;;6.35;;
25341;SDS011;13298;48.792;9.154;2023-02-28T13:39:51;12.35;;;6.90;;
25341;SDS011;13298;48.792;9.154;2023-02-28T13:47:35;10.60;;;6.82;;
25341;SDS011;13298;48.792;9.154;2023-02-28T13:52:48;13.10;;;6.85;;
25341;SDS011;13298;48.792;9.154;2023-02-28T13:55:24;11.25;;;7.45;;
25341;SDS011;13298;48.792;9.154;2023-02-28T14:00:42;9.20;;;6.97;;
25341;SDS011;13298;48.792;9.154;2023-02-28T14:06:54;12.88;;;6.97;;
25341;SDS011;13298;48.792;9.154;2023-02-28T14:09:24;11.13;;;6.97;;
25341;SDS011;13298;48.792;9.154;2023-02-28T14:11:56;11.60;;;6.53;;
25341;SDS011;13298;48.792;9.154;2023-02-28T14:17:12;11.27;;;7.53;;
25341;SDS011;13298;48.792;9.154;2023-02-28T14:19:43;10.23;;;6.38;;
25341;SDS011;13298;48.792;9.154;2023-02-28T14:30:56;9.05;;;6.10;;
25341;SDS011;13298;48.792;9.154;2023-02-28T14:33:45;10.68;;;6.82;;
25341;SDS011;13298;48.792;9.154;2023-02-28T14:36:26;10.95;;;6.80;;
25341;SDS011;13298;48.792;9.154;2023-02-28T14:38:59;10.57;;;6.72;;
25341;SDS011;13298;48.792;9.154;2023-02-28T14:41:32;12.05;;;6.32;;
25341;SDS011;13298;48.792;9.154;2023-02-28T14:44:02;13.07;;;6.65;;
25341;SDS011;13298;48.792;9.154;2023-02-28T14:46:49;10.35;;;6.40;;
25341;SDS011;13298;48.792;9.154;2023-02-28T14:49:19;11.60;;;5.97;;
25341;SDS011;13298;48.792;9.154;2023-02-28T14:52:06;11.13;;;6.55;;
25341;SDS011;13298;48.792;9.154;2023-02-28T14:54:52;8.88;;;5.95;;
25341;SDS011;13298;48.792;9.154;2023-02-28T14:57:34;9.50;;;6.63;;
25341;SDS011;13298;48.792;9.154;2023-02-28T15:00:16;12.25;;;6.50;;
25341;SDS011;13298;48.792;9.154;2023-02-28T15:05:57;13.50;;;6.80;;
25341;SDS011;13298;48.792;9.154;2023-02-28T15:08:31;9.02;;;6.30;;
25341;SDS011;13298;48.792;9.154;2023-02-28T15:11:01;12.73;;;7.28;;
25341;SDS011;13298;48.792;9.154;2023-02-28T15:13:41;10.20;;;6.55;;
25341;SDS011;13298;48.792;9.154;2023-02-28T15:16:22;13.73;;;6.90;;
25341;SDS011;13298;48.792;9.154;2023-02-28T15:19:08;9.32;;;6.75;;
25341;SDS011;13298;48.792;9.154;2023-02-28T15:21:47;9.93;;;6.90;;
25341;SDS011;13298;48.792;9.154;2023-02-28T15:24:18;14.05;;;7.05;;
25341;SDS011;13298;48.792;9.154;2023-02-28T15:26:58;11.63;;;7.10;;
25341;SDS011;13298;48.792;9.154;2023-02-28T15:29:29;10.73;;;6.57;;
25341;SDS011;13298;48.792;9.154;2023-02-28T15:32:03;11.65;;;7.10;;
25341;SDS011;13298;48.792;9.154;2023-02-28T15:40:14;13.75;;;7.05;;
25341;SDS011;13298;48.792;9.154;2023-02-28T15:42:58;12.55;;;7.28;;
25341;SDS011;13298;48.792;9.154;2023-02-28T15:45:39;8.43;;;6.85;;
25341;SDS011;13298;48.792;9.154;2023-02-28T15:48:21;10.57;;;6.97;;
25341;SDS011;13298;48.792;9.154;2023-02-28T15:51:24;8.90;;;6.35;;
25341;SDS011;13298;48.792;9.154;2023-02-28T15:54:07;12.23;;;7.30;;
25341;SDS011;13298;48.792;9.154;2023-02-28T15:56:50;10.13;;;6.50;;
25341;SDS011;13298;48.792;9.154;2023-02-28T15:59:23;8.73;;;6.40;;
25341;SDS011;13298;48.792;9.154;2023-02-28T16:02:13;9.68;;;6.63;;
25341;SDS011;13298;48.792;9.154;2023-02-28T16:07:43;11.32;;;7.35;;
25341;SDS011;13298;48.792;9.154;2023-02-28T16:10:10;14.20;;;7.40;;
25341;SDS011;13298;48.792;9.154;2023-02-28T16:12:39;14.57;;;7.50;;
25341;SDS011;13298;48.792;9.154;2023-02-28T16:15:06;10.18;;;6.30;;
25341;SDS011;13298;48.792;9.154;2023-02-28T16:20:14;11.10;;;5.90;;
25341;SDS011;13298;48.792;9.154;2023-02-28T16:22:49;11.02;;;7.30;;
25341;SDS011;13298;48.792;9.154;2023-02-28T16:25:19;11.38;;;6.63;;
25341;SDS011;13298;48.792;9.154;2023-02-28T16:27:49;9.35;;;6.78;;
25341;SDS011;13298;48.792;9.154;2023-02-28T16:30:23;11.35;;;7.28;;
25341;SDS011;13298;48.792;9.154;2023-02-28T16:32:51;13.88;;;7.68;;
25341;SDS011;13298;48.792;9.154;2023-02-28T16:35:20;11.45;;;6.72;;
25341;SDS011;13298;48.792;9.154;2023-02-28T16:37:46;12.32;;;7.07;;
25341;SDS011;13298;48.792;9.154;2023-02-28T16:40:15;10.13;;;7.05;;
25341;SDS011;13298;48.792;9.154;2023-02-28T16:42:46;12.23;;;6.95;;
25341;SDS011;13298;48.792;9.154;2023-02-28T16:45:14;11.77;;;7.05;;
25341;SDS011;13298;48.792;9.154;2023-02-28T16:47:44;10.52;;;7.22;;
25341;SDS011;13298;48.792;9.154;2023-02-28T16:50:17;11.82;;;7.50;;
25341;SDS011;13298;48.792;9.154;2023-02-28T16:52:46;10.75;;;6.72;;
25341;SDS011;13298;48.792;9.154;2023-02-28T16:55:13;11.82;;;7.40;;
25341;SDS011;13298;48.792;9.154;2023-02-28T16:57:38;11.90;;;7.47;;
25341;SDS011;13298;48.792;9.154;2023-02-28T17:00:06;10.15;;;7.03;;
25341;SDS011;13298;48.792;9.154;2023-02-28T17:02:35;10.95;;;7.40;;
25341;SDS011;13298;48.792;9.154;2023-02-28T17:05:01;13.43;;;7.55;;
25341;SDS011;13298;48.792;9.154;2023-02-28T17:07:26;11.45;;;7.60;;
25341;SDS011;13298;48.792;9.154;2023-02-28T17:09:52;11.10;;;8.00;;
25341;SDS011;13298;48.792;9.154;2023-02-28T17:12:18;12.45;;;8.27;;
25341;SDS011;13298;48.792;9.154;2023-02-28T17:14:44;13.48;;;7.70;;
25341;SDS011;13298;48.792;9.154;2023-02-28T17:17:17;9.60;;;6.80;;
25341;SDS011;13298;48.792;9.154;2023-02-28T17:19:46;14.95;;;8.13;;
25341;SDS011;13298;48.792;9.154;2023-02-28T17:22:12;12.02;;;8.05;;
25341;SDS011;13298;48.792;9.154;2023-02-28T17:24:38;12.43;;;6.90;;
25341;SDS011;13298;48.792;9.154;2023-02-28T17:27:16;16.13;;;7.18;;
25341;SDS011;13298;48.792;9.154;2023-02-28T17:29:42;11.13;;;7.10;;
25341;SDS011;13298;48.792;9.154;2023-02-28T17:32:07;11.95;;;6.97;;
25341;SDS011;13298;48.792;9.154;2023-02-28T17:34:33;13.30;;;8.38;;
25341;SDS011;13298;48.792;9.154;2023-02-28T17:36:59;11.65;;;8.35;;
25341;SDS011;13298;48.792;9.154;2023-02-28T17:39:25;12.95;;;7.68;;
25341;SDS011;13298;48.792;9.154;2023-02-28T17:41:54;12.57;;;8.10;;
25341;SDS011;13298;48.792;9.154;2023-02-28T17:44:20;13.48;;;8.25;;